Time;durP1;ratioP1;P1;durP2;ratioP2;P2;SDS_P1;SDS_P2;PMS_P1;PMS_P2;Temp;Humidity;BMP_temperature;BMP_pressure;BME280_temperature;BME280_humidity;BME280_pressure;Samples;Min_cycle;Max_cycle;Signal;HPM_P1;HPM_P2
2023/01/17 00:00:09;;;;;;;71.72;42.90;;;3.40;99.90;;;;;;2603578;54;19934;31
2023/01/17 00:02:44;;;;;;;70.22;41.50;;;3.40;99.90;;;;;;2621703;46;20846;31
2023/01/17 00:10:57;;;;;;;71.30;41.38;;;3.30;99.90;;;;;;2603465;54;19942;31
2023/01/17 00:13:32;;;;;;;63.23;39.97;;;3.30;99.90;;;;;;2621891;46;20022;31
2023/01/17 00:16:12;;;;;;;69.50;40.95;;;3.20;99.90;;;;;;2603596;54;20845;31
2023/01/17 00:26:01;;;;;;;69.85;39.55;;;3.20;99.90;;;;;;2603360;54;20137;31
2023/01/17 01:35:19;;;;;;;47.85;28.33;;;2.80;99.90;;;;;;2603013;54;20121;31
2023/01/17 01:37:56;;;;;;;48.73;27.43;;;2.80;99.90;;;;;;2603264;54;20979;31
2023/01/17 01:40:31;;;;;;;45.07;25.97;;;2.90;99.90;;;;;;2603135;54;20921;31
2023/01/17 01:43:10;;;;;;;47.70;26.57;;;2.90;99.90;;;;;;2603028;54;20255;31
2023/01/17 01:45:47;;;;;;;43.65;25.00;;;2.90;99.90;;;;;;2603046;54;20309;31
2023/01/17 01:48:28;;;;;;;46.83;25.95;;;2.90;99.90;;;;;;2603266;54;20026;31
2023/01/17 01:51:03;;;;;;;38.15;24.17;;;2.90;99.90;;;;;;2603238;54;20022;31
2023/01/17 01:53:38;;;;;;;46.15;26.98;;;3.00;99.90;;;;;;2603336;54;20037;31
2023/01/17 01:56:18;;;;;;;40.22;23.98;;;3.00;99.90;;;;;;2603251;54;20023;31
2023/01/17 01:58:55;;;;;;;38.97;23.98;;;3.00;99.90;;;;;;2602885;54;20046;31
2023/01/17 02:01:30;;;;;;;41.40;23.23;;;3.00;99.90;;;;;;2602236;54;20589;31
2023/01/17 02:04:08;;;;;;;35.97;21.15;;;3.00;99.90;;;;;;2603157;54;20920;31
2023/01/17 02:06:45;;;;;;;37.10;22.35;;;3.00;99.90;;;;;;2603160;54;20023;31
2023/01/17 02:09:20;;;;;;;34.47;19.02;;;3.00;99.90;;;;;;2603139;54;20905;31
2023/01/17 02:11:58;;;;;;;28.60;16.90;;;2.90;99.90;;;;;;2603258;54;20807;31
2023/01/17 02:14:33;;;;;;;27.83;16.33;;;2.90;99.90;;;;;;2602998;54;20023;31
2023/01/17 02:17:16;;;;;;;22.98;13.85;;;2.90;99.90;;;;;;2602880;54;21028;31
2023/01/17 02:22:58;;;;;;;18.37;10.93;;;3.00;99.90;;;;;;2602956;54;20089;31
2023/01/17 02:25:55;;;;;;;11.60;8.10;;;3.00;99.90;;;;;;2602925;54;20252;31
2023/01/17 02:28:41;;;;;;;15.35;8.65;;;2.90;99.90;;;;;;2701376;39;20501;31
2023/01/17 02:31:20;;;;;;;11.68;6.38;;;3.00;99.90;;;;;;2603197;54;20869;31
2023/01/17 02:33:59;;;;;;;9.52;6.53;;;3.00;99.90;;;;;;2603063;54;20031;31
2023/01/17 02:36:34;;;;;;;9.25;5.68;;;3.00;99.90;;;;;;2603054;54;20029;31
2023/01/17 02:39:11;;;;;;;8.75;5.65;;;3.10;99.90;;;;;;2603006;54;20031;31
2023/01/17 02:41:46;;;;;;;8.70;5.57;;;3.10;99.90;;;;;;2602995;54;20842;31
2023/01/17 02:44:22;;;;;;;7.80;5.40;;;3.10;99.90;;;;;;2603082;54;20022;31
2023/01/17 02:47:03;;;;;;;7.53;5.07;;;3.10;99.90;;;;;;2603795;54;20046;31
2023/01/17 02:49:37;;;;;;;6.70;4.45;;;3.20;99.90;;;;;;2603598;54;20033;31
2023/01/17 02:52:22;;;;;;;8.20;5.25;;;3.10;99.90;;;;;;2603685;54;20986;31
2023/01/17 02:55:05;;;;;;;6.63;4.43;;;3.10;99.90;;;;;;2603656;54;20110;31
2023/01/17 02:57:51;;;;;;;6.70;4.30;;;3.10;99.90;;;;;;2603766;54;20101;31
2023/01/17 03:00:28;;;;;;;6.65;3.88;;;3.10;99.90;;;;;;2603664;54;20953;31
2023/01/17 03:03:09;;;;;;;6.65;4.00;;;3.10;99.90;;;;;;2603636;54;20898;31
2023/01/17 03:05:45;;;;;;;7.10;4.10;;;3.10;99.90;;;;;;2603710;54;20811;31
2023/01/17 03:08:21;;;;;;;6.38;4.00;;;3.10;99.90;;;;;;2603805;54;20033;31
2023/01/17 03:10:57;;;;;;;7.85;4.25;;;3.10;98.80;;;;;;2603887;54;20081;31
2023/01/17 03:13:32;;;;;;;4.70;3.35;;;3.10;96.70;;;;;;2603888;54;20030;31
2023/01/17 03:16:08;;;;;;;5.70;3.60;;;3.10;99.90;;;;;;2603461;54;20860;31
2023/01/17 03:18:48;;;;;;;5.57;3.85;;;3.10;99.90;;;;;;2603720;54;20254;31
2023/01/17 03:21:22;;;;;;;5.55;3.72;;;3.10;99.90;;;;;;2621989;46;20027;31
2023/01/17 03:23:58;;;;;;;6.72;4.50;;;3.10;99.90;;;;;;2603025;54;20921;31
2023/01/17 03:26:33;;;;;;;7.90;4.23;;;3.10;99.90;;;;;;2603763;54;20850;31
2023/01/17 03:29:08;;;;;;;6.07;3.70;;;3.10;99.90;;;;;;2602847;54;20050;31
2023/01/17 03:31:42;;;;;;;6.53;3.85;;;3.10;99.90;;;;;;2603544;54;20054;31
2023/01/17 03:34:21;;;;;;;6.35;4.25;;;3.20;99.90;;;;;;2603779;54;20745;31
2023/01/17 03:36:55;;;;;;;8.60;4.53;;;3.20;99.90;;;;;;2622068;46;20118;31
2023/01/17 03:39:31;;;;;;;5.45;3.53;;;3.20;94.10;;;;;;2603495;54;20092;31
2023/01/17 03:42:07;;;;;;;6.32;3.83;;;3.30;83.20;;;;;;2603573;54;20870;31
2023/01/17 03:44:43;;;;;;;8.77;4.40;;;3.30;90.70;;;;;;2603616;54;20022;31
2023/01/17 03:47:19;;;;;;;5.72;3.83;;;3.30;79.20;;;;;;2603650;54;20026;31
2023/01/17 03:49:58;;;;;;;6.40;4.10;;;3.30;68.80;;;;;;2603886;54;20838;31
2023/01/17 03:52:33;;;;;;;5.75;3.60;;;3.40;62.40;;;;;;2603638;54;20822;31
2023/01/17 03:55:11;;;;;;;7.25;3.65;;;3.40;57.70;;;;;;2621891;46;20104;31
2023/01/17 03:57:50;;;;;;;7.32;3.80;;;3.40;52.00;;;;;;2603161;54;20855;31
2023/01/17 04:00:25;;;;;;;8.77;3.67;;;3.40;51.00;;;;;;2603708;54;20027;31
2023/01/17 04:03:00;;;;;;;7.72;4.03;;;3.40;40.60;;;;;;2603645;54;20169;31
2023/01/17 04:05:38;;;;;;;7.90;4.10;;;3.40;36.40;;;;;;2603418;54;20893;31
2023/01/17 04:11:01;;;;;;;4.97;3.87;;;3.40;53.70;;;;;;2603226;54;20950;31
2023/01/17 04:13:37;;;;;;;7.53;4.38;;;3.40;40.50;;;;;;2603277;54;20069;31
2023/01/17 04:16:13;;;;;;;6.93;4.13;;;3.40;44.20;;;;;;2702220;39;20477;31
2023/01/17 04:18:48;;;;;;;6.93;4.15;;;3.40;48.40;;;;;;2621646;46;20283;31
2023/01/17 04:21:25;;;;;;;6.23;4.47;;;3.40;40.00;;;;;;2603542;54;20207;31
2023/01/17 04:24:00;;;;;;;7.65;4.70;;;3.30;47.40;;;;;;2602614;54;20265;31
2023/01/17 04:26:36;;;;;;;9.45;4.70;;;3.40;45.80;;;;;;2603546;54;20042;31
2023/01/17 04:29:10;;;;;;;7.50;4.95;;;3.30;37.40;;;;;;2603437;54;20022;31
2023/01/17 04:31:47;;;;;;;8.77;5.47;;;3.30;40.70;;;;;;2603387;54;20065;31
2023/01/17 04:34:22;;;;;;;8.85;5.10;;;3.30;42.60;;;;;;2603379;54;20904;31
2023/01/17 04:37:03;;;;;;;8.10;6.00;;;3.30;42.60;;;;;;2603525;54;20046;31
2023/01/17 04:39:38;;;;;;;9.63;5.97;;;3.20;45.90;;;;;;2621596;46;25110;31
2023/01/17 04:42:14;;;;;;;10.48;5.75;;;3.10;46.50;;;;;;2603539;54;20792;31
2023/01/17 04:44:49;;;;;;;9.60;5.85;;;3.10;48.20;;;;;;2603561;54;20811;31
2023/01/17 04:47:24;;;;;;;9.25;5.63;;;3.00;49.70;;;;;;2602575;54;20089;31
2023/01/17 04:50:00;;;;;;;8.02;5.40;;;3.00;51.00;;;;;;2603280;54;20093;31
2023/01/17 04:52:37;;;;;;;8.35;5.35;;;3.00;47.90;;;;;;2603706;54;20841;31
2023/01/17 04:55:13;;;;;;;7.35;4.57;;;2.90;47.80;;;;;;2603262;54;20030;31
2023/01/17 04:57:49;;;;;;;9.03;5.33;;;2.90;47.50;;;;;;2603435;54;20920;31
2023/01/17 05:00:24;;;;;;;;;;;2.90;47.80;;;;;;2603455;54;20082;31
2023/01/17 05:02:59;;;;;;;8.23;4.35;;;2.80;46.90;;;;;;2603378;54;19935;31
2023/01/17 05:05:37;;;;;;;7.82;4.70;;;2.90;46.00;;;;;;2603125;54;20907;31
2023/01/17 05:08:14;;;;;;;9.02;4.07;;;2.80;46.20;;;;;;2603280;54;20034;31
2023/01/17 05:10:48;;;;;;;7.65;4.13;;;2.70;46.80;;;;;;2603226;54;20927;31
2023/01/17 05:13:24;;;;;;;7.75;4.00;;;2.70;45.10;;;;;;2621745;46;20023;31
2023/01/17 05:16:00;;;;;;;5.20;3.95;;;2.80;44.40;;;;;;2603263;54;20889;31
2023/01/17 05:18:36;;;;;;;5.90;4.33;;;2.70;43.70;;;;;;2621719;46;20812;31
2023/01/17 05:21:12;;;;;;;6.28;3.55;;;2.70;43.30;;;;;;2603341;54;20338;31
2023/01/17 05:23:49;;;;;;;5.90;3.77;;;2.70;42.60;;;;;;2603377;54;20894;31
2023/01/17 05:26:22;;;;;;;5.03;2.78;;;2.70;42.80;;;;;;2773493;31;21059;31
2023/01/17 05:28:57;;;;;;;5.35;3.03;;;2.70;41.20;;;;;;2603188;54;20941;31
2023/01/17 05:31:33;;;;;;;5.35;3.33;;;2.70;42.40;;;;;;2603182;54;20840;31
2023/01/17 05:34:09;;;;;;;3.33;2.63;;;2.60;43.70;;;;;;2603499;54;20022;31
2023/01/17 05:36:43;;;;;;;5.43;2.63;;;2.60;41.90;;;;;;2603131;54;20052;31
2023/01/17 05:39:20;;;;;;;5.18;3.00;;;2.60;40.00;;;;;;2621644;46;20046;31
2023/01/17 05:41:59;;;;;;;4.20;2.90;;;2.60;38.20;;;;;;2603076;54;20042;31
2023/01/17 05:44:35;;;;;;;5.00;3.25;;;2.70;35.80;;;;;;2603226;54;20026;31
2023/01/17 05:47:09;;;;;;;5.97;2.93;;;2.70;32.50;;;;;;2609763;39;21135;31
2023/01/17 05:49:46;;;;;;;4.65;2.72;;;2.70;30.00;;;;;;2603145;54;20269;31
2023/01/17 05:52:21;;;;;;;4.07;3.00;;;2.70;27.30;;;;;;2602966;54;20920;31
2023/01/17 05:55:00;;;;;;;3.80;2.80;;;2.70;25.20;;;;;;2602980;54;20022;31
2023/01/17 05:57:34;;;;;;;4.38;2.80;;;2.80;23.30;;;;;;2603200;54;20022;31
2023/01/17 06:00:13;;;;;;;5.85;2.80;;;2.80;20.80;;;;;;2603137;54;20046;31
2023/01/17 06:02:49;;;;;;;5.45;2.80;;;2.80;19.10;;;;;;2603150;54;20027;31
2023/01/17 06:05:24;;;;;;;4.20;2.97;;;2.80;18.70;;;;;;2603099;54;20064;31
2023/01/17 06:07:59;;;;;;;7.60;2.60;;;2.80;17.40;;;;;;2603253;54;20881;31
2023/01/17 06:10:38;;;;;;;3.80;2.33;;;2.80;18.80;;;;;;2603116;54;20246;31
2023/01/17 06:13:14;;;;;;;4.70;2.90;;;2.90;17.60;;;;;;2603058;54;20802;31
2023/01/17 06:15:49;;;;;;;5.25;2.78;;;2.80;16.70;;;;;;2603008;54;20048;31
2023/01/17 06:18:24;;;;;;;5.70;2.80;;;2.90;16.40;;;;;;2603219;54;20049;31
2023/01/17 06:20:58;;;;;;;4.72;2.90;;;2.90;16.50;;;;;;2603357;54;20915;31
2023/01/17 06:23:34;;;;;;;6.20;2.95;;;2.80;15.60;;;;;;2603727;54;20141;31
2023/01/17 06:26:12;;;;;;;4.60;3.00;;;2.90;15.30;;;;;;2603763;54;20885;31
2023/01/17 06:28:48;;;;;;;4.63;3.10;;;2.80;13.20;;;;;;2603873;54;20034;31
2023/01/17 06:31:24;;;;;;;8.52;3.50;;;2.90;13.70;;;;;;2603758;54;20029;31
2023/01/17 06:33:59;;;;;;;6.90;3.90;;;2.80;12.40;;;;;;2603547;54;20126;31
2023/01/17 06:36:34;;;;;;;7.78;4.45;;;2.80;9.50;;;;;;2603635;54;21005;31
2023/01/17 06:39:13;;;;;;;6.55;3.60;;;2.80;8.20;;;;;;2603823;54;20030;31
2023/01/17 06:41:52;;;;;;;8.05;3.28;;;2.80;4.90;;;;;;2603935;54;20023;31
2023/01/17 06:44:28;;;;;;;6.60;2.70;;;2.80;1.00;;;;;;2603605;54;20113;31
2023/01/17 06:47:03;;;;;;;4.13;1.83;;;2.90;1.00;;;;;;2603985;54;20835;31
2023/01/17 06:49:39;;;;;;;4.03;2.07;;;2.90;1.00;;;;;;2622039;46;20843;31
2023/01/17 06:52:13;;;;;;;5.37;2.80;;;2.90;1.00;;;;;;2603895;54;20066;31
2023/01/17 06:54:49;;;;;;;2.93;1.70;;;2.90;1.00;;;;;;2603797;54;19961;31
2023/01/17 06:57:28;;;;;;;3.28;1.92;;;3.00;1.00;;;;;;2603635;54;19942;31
2023/01/17 07:00:04;;;;;;;3.08;1.90;;;3.00;1.00;;;;;;2603877;54;20050;31
2023/01/17 07:02:39;;;;;;;3.50;1.90;;;3.00;1.00;;;;;;2602853;54;20802;31
2023/01/17 07:05:17;;;;;;;3.50;2.05;;;3.10;1.00;;;;;;2603559;54;20027;31
2023/01/17 07:07:55;;;;;;;4.75;1.90;;;3.10;1.00;;;;;;2603716;54;20835;31
2023/01/17 07:10:30;;;;;;;3.20;1.90;;;3.20;1.00;;;;;;2603724;54;20040;31
2023/01/17 07:13:14;;;;;;;2.97;1.55;;;3.10;1.00;;;;;;2603556;54;20026;31
2023/01/17 07:15:50;;;;;;;2.83;1.63;;;3.20;1.00;;;;;;2603894;54;20032;31
2023/01/17 07:18:25;;;;;;;4.03;1.90;;;3.20;1.00;;;;;;2603632;54;20922;31
2023/01/17 07:21:00;;;;;;;3.58;1.83;;;3.30;1.00;;;;;;2603544;54;20030;31
2023/01/17 07:23:36;;;;;;;5.40;4.20;;;3.30;1.00;;;;;;2622136;46;20050;31
2023/01/17 07:26:12;;;;;;;7.32;4.97;;;3.30;1.00;;;;;;2603216;54;19934;31
2023/01/17 07:28:50;;;;;;;10.35;6.07;;;3.40;1.00;;;;;;2603462;54;20034;31
2023/01/17 07:31:26;;;;;;;7.28;4.43;;;3.40;1.00;;;;;;2603588;54;20038;31
2023/01/17 07:34:01;;;;;;;6.20;4.30;;;3.40;1.00;;;;;;2603628;54;20808;31
2023/01/17 07:36:38;;;;;;;6.78;4.22;;;3.50;1.00;;;;;;2603539;54;20246;31
2023/01/17 07:39:12;;;;;;;6.72;3.72;;;3.50;1.00;;;;;;2603613;54;20026;31
2023/01/17 07:41:47;;;;;;;3.97;2.47;;;3.50;1.00;;;;;;2603645;54;20878;31
2023/01/17 07:44:25;;;;;;;4.30;2.67;;;3.60;1.00;;;;;;2603489;54;20046;31
2023/01/17 07:47:03;;;;;;;1.92;1.40;;;3.50;1.00;;;;;;2622006;46;20042;31
2023/01/17 07:49:39;;;;;;;3.72;1.63;;;3.60;1.00;;;;;;2603731;54;20045;31
2023/01/17 07:52:15;;;;;;;3.67;1.53;;;3.60;1.00;;;;;;2603535;54;20097;31
2023/01/17 07:54:52;;;;;;;4.70;1.60;;;3.60;1.00;;;;;;2613785;46;20053;31
2023/01/17 07:57:27;;;;;;;4.40;1.70;;;3.60;99.90;;;;;;2603588;54;19935;31
2023/01/17 08:00:06;;;;;;;5.35;2.13;;;3.70;99.90;;;;;;2603394;54;20880;31
2023/01/17 08:02:49;;;;;;;4.70;2.00;;;3.70;99.90;;;;;;2603508;54;20900;31
2023/01/17 08:05:24;;;;;;;5.85;2.85;;;3.70;99.90;;;;;;2603556;54;20034;31
2023/01/17 08:08:00;;;;;;;5.32;2.85;;;3.80;99.90;;;;;;2603555;54;20887;31
2023/01/17 08:10:35;;;;;;;3.77;1.83;;;3.80;99.90;;;;;;2603482;54;20898;31
2023/01/17 08:13:10;;;;;;;4.60;2.40;;;3.90;99.90;;;;;;2603338;54;20904;31
2023/01/17 08:15:50;;;;;;;5.88;2.08;;;3.90;99.90;;;;;;2603395;54;20101;31
2023/01/17 08:18:26;;;;;;;4.43;2.50;;;3.90;99.90;;;;;;2603458;54;20027;31
2023/01/17 08:21:03;;;;;;;4.30;2.10;;;4.00;99.90;;;;;;2603788;54;20089;31
2023/01/17 08:23:41;;;;;;;4.55;2.00;;;4.10;99.90;;;;;;2603550;54;20105;31
2023/01/17 08:26:20;;;;;;;6.50;2.10;;;4.20;99.90;;;;;;2603261;54;20022;31
2023/01/17 08:29:00;;;;;;;4.93;2.10;;;4.30;99.90;;;;;;2603317;54;20035;31
2023/01/17 08:31:39;;;;;;;4.20;1.63;;;4.40;99.90;;;;;;2603559;54;20026;31
2023/01/17 08:34:15;;;;;;;6.63;1.70;;;4.60;99.90;;;;;;2603353;54;21143;31
2023/01/17 08:36:49;;;;;;;3.08;1.17;;;4.80;99.90;;;;;;2603237;54;20851;31
2023/01/17 08:39:26;;;;;;;2.92;1.30;;;4.90;1.00;;;;;;2603479;54;20153;31
2023/01/17 08:42:02;;;;;;;2.72;1.70;;;5.10;99.90;;;;;;2612166;46;20026;31
2023/01/17 08:44:38;;;;;;;3.20;1.20;;;5.30;99.90;;;;;;2603041;54;20945;31
2023/01/17 08:47:16;;;;;;;3.05;1.85;;;5.70;99.90;;;;;;2603297;54;20046;31
2023/01/17 08:49:54;;;;;;;6.38;2.05;;;6.20;99.90;;;;;;2603502;54;20116;31
2023/01/17 08:52:29;;;;;;;4.60;1.90;;;6.50;1.00;;;;;;2603447;54;20045;31
2023/01/17 08:55:09;;;;;;;6.80;2.28;;;6.90;99.90;;;;;;2603479;54;20840;31
2023/01/17 08:57:45;;;;;;;5.80;1.70;;;6.90;99.90;;;;;;2603360;54;20100;31
2023/01/17 09:00:22;;;;;;;;;;;6.90;99.90;;;;;;2603345;54;20888;31
2023/01/17 09:03:09;;;;;;;2.80;1.40;;;6.80;99.90;;;;;;2603340;54;19946;31
2023/01/17 09:05:45;;;;;;;2.28;1.35;;;6.70;99.90;;;;;;2603438;54;20027;31
2023/01/17 09:08:25;;;;;;;3.03;1.00;;;6.60;99.90;;;;;;2603268;54;20030;31
2023/01/17 09:11:00;;;;;;;4.00;1.80;;;6.50;99.90;;;;;;2621478;46;20026;31
2023/01/17 09:13:35;;;;;;;4.93;1.57;;;6.40;99.90;;;;;;2603442;54;20060;31
2023/01/17 09:16:11;;;;;;;5.20;2.30;;;6.40;99.90;;;;;;2603062;54;20034;31
2023/01/17 09:18:49;;;;;;;4.87;2.30;;;6.40;99.90;;;;;;2603308;54;20101;31
2023/01/17 09:21:24;;;;;;;5.32;1.80;;;6.30;99.90;;;;;;2603463;54;20027;31
2023/01/17 09:23:59;;;;;;;5.20;1.80;;;6.30;99.90;;;;;;2603143;54;20855;31
2023/01/17 09:26:36;;;;;;;3.20;1.60;;;6.30;99.90;;;;;;2603314;54;20804;31
2023/01/17 09:29:12;;;;;;;6.95;1.45;;;6.20;99.90;;;;;;2603223;54;20820;31
2023/01/17 09:31:48;;;;;;;5.38;1.95;;;6.20;99.90;;;;;;2603443;54;20048;31
2023/01/17 09:34:29;;;;;;;3.80;1.70;;;6.10;56.40;;;;;;2621491;46;20769;31
2023/01/17 09:37:06;;;;;;;3.60;2.00;;;6.20;93.10;;;;;;2603325;54;20109;31
2023/01/17 09:39:44;;;;;;;2.92;1.48;;;6.10;99.90;;;;;;2602255;54;20034;31
2023/01/17 09:42:23;;;;;;;2.95;1.40;;;6.10;1.00;;;;;;2602736;54;20921;31
2023/01/17 09:44:58;;;;;;;6.05;1.73;;;6.20;99.90;;;;;;2603343;54;20049;31
2023/01/17 09:47:38;;;;;;;2.85;1.65;;;6.20;1.00;;;;;;2602926;54;20018;31
2023/01/17 09:50:28;;;;;;;4.07;1.63;;;6.20;1.00;;;;;;2603053;54;20966;31
2023/01/17 09:53:04;;;;;;;10.77;2.72;;;6.20;1.00;;;;;;2603211;54;20022;31
2023/01/17 09:55:42;;;;;;;3.47;1.87;;;6.20;1.00;;;;;;2621546;46;20077;31
2023/01/17 09:58:20;;;;;;;2.30;1.05;;;6.20;99.90;;;;;;2603076;54;20831;31
2023/01/17 10:00:59;;;;;;;3.03;1.25;;;6.20;99.90;;;;;;2603075;54;20941;31
2023/01/17 10:03:48;;;;;;;5.40;1.95;;;6.30;1.00;;;;;;2603066;54;20030;31
2023/01/17 10:06:48;;;;;;;2.83;1.30;;;6.30;99.90;;;;;;2602984;54;20081;31
2023/01/17 10:09:44;;;;;;;3.70;1.40;;;6.30;99.90;;;;;;2603097;54;20848;31
2023/01/17 10:12:26;;;;;;;3.78;0.70;;;6.40;99.90;;;;;;2603221;54;20033;31
2023/01/17 10:15:20;;;;;;;1.50;0.77;;;6.40;99.90;;;;;;2603206;54;20923;31
2023/01/17 10:17:59;;;;;;;2.00;0.80;;;6.50;87.40;;;;;;2602887;54;20857;31
2023/01/17 10:20:44;;;;;;;3.40;0.90;;;6.70;1.00;;;;;;2621625;47;20034;31
2023/01/17 10:23:40;;;;;;;4.90;0.80;;;7.00;1.00;;;;;;2603153;54;20081;31
2023/01/17 10:26:17;;;;;;;1.65;0.75;;;7.40;1.00;;;;;;2603024;54;20897;31
2023/01/17 10:28:53;;;;;;;3.55;0.82;;;7.70;99.90;;;;;;2602847;54;20847;31
2023/01/17 10:31:29;;;;;;;1.60;0.67;;;7.90;99.90;;;;;;2602927;54;20030;31
2023/01/17 10:34:04;;;;;;;2.78;0.65;;;8.10;33.10;;;;;;2701530;39;21142;31
2023/01/17 10:36:41;;;;;;;3.38;0.77;;;8.30;99.90;;;;;;2603065;54;20034;31
2023/01/17 10:39:22;;;;;;;1.65;0.73;;;8.60;98.90;;;;;;2602832;54;20085;31
2023/01/17 10:41:57;;;;;;;2.15;0.82;;;8.60;1.00;;;;;;2603349;54;20123;31
2023/01/17 10:44:35;;;;;;;2.73;1.00;;;8.60;1.00;;;;;;2602842;54;20963;31
2023/01/17 10:47:14;;;;;;;2.83;0.95;;;8.50;99.90;;;;;;2602854;54;20904;31
2023/01/17 10:49:51;;;;;;;1.98;1.05;;;8.40;99.90;;;;;;2603035;54;20054;31
2023/01/17 10:52:35;;;;;;;1.85;0.95;;;8.40;56.30;;;;;;2602849;54;20964;31
2023/01/17 10:55:33;;;;;;;2.72;1.15;;;8.40;87.90;;;;;;2602902;54;20038;31
2023/01/17 10:58:08;;;;;;;2.95;0.90;;;8.40;26.30;;;;;;2602955;54;20836;31
2023/01/17 11:00:48;;;;;;;2.33;0.60;;;8.30;33.50;;;;;;2603023;54;20076;31
2023/01/17 11:03:22;;;;;;;1.77;0.57;;;8.30;1.00;;;;;;2608961;39;22228;31
2023/01/17 11:06:31;;;;;;;2.00;1.00;;;8.20;99.90;;;;;;2603015;54;20029;31
2023/01/17 11:09:10;;;;;;;2.50;0.70;;;8.10;1.00;;;;;;2604012;54;20046;31
2023/01/17 11:11:52;;;;;;;1.73;0.90;;;8.10;99.90;;;;;;2603945;54;20026;31
2023/01/17 11:14:29;;;;;;;1.42;0.85;;;8.00;99.90;;;;;;2603459;54;20927;31
2023/01/17 11:17:05;;;;;;;1.83;0.65;;;8.10;99.90;;;;;;2603662;54;20939;31
2023/01/17 11:19:44;;;;;;;2.03;0.77;;;8.10;99.90;;;;;;2603817;54;20027;31
2023/01/17 11:22:19;;;;;;;1.55;0.65;;;8.10;99.90;;;;;;2602883;54;20893;31
2023/01/17 11:24:57;;;;;;;4.65;1.15;;;8.10;99.90;;;;;;2622109;46;20089;31
2023/01/17 11:27:36;;;;;;;2.08;0.90;;;8.00;99.90;;;;;;2603686;54;20088;31
2023/01/17 11:30:18;;;;;;;1.40;0.88;;;8.00;99.80;;;;;;2603712;54;20908;31
2023/01/17 11:32:54;;;;;;;1.80;0.90;;;7.90;52.80;;;;;;2602734;54;20802;31
2023/01/17 11:35:31;;;;;;;3.33;1.05;;;7.90;1.00;;;;;;2603592;54;20026;31
2023/01/17 11:38:13;;;;;;;2.60;0.73;;;7.80;11.70;;;;;;2603753;54;20037;31
2023/01/17 11:40:48;;;;;;;3.03;0.90;;;7.80;8.90;;;;;;2603559;54;21244;31
2023/01/17 11:43:27;;;;;;;3.08;1.20;;;7.70;1.00;;;;;;2603860;54;20046;31
2023/01/17 11:46:07;;;;;;;1.90;0.82;;;7.70;51.30;;;;;;2603544;54;20082;31
2023/01/17 11:48:42;;;;;;;5.93;1.45;;;7.60;1.00;;;;;;2603503;54;20029;31
2023/01/17 11:51:24;;;;;;;2.97;0.90;;;7.60;1.00;;;;;;2603299;54;20832;31
2023/01/17 11:54:10;;;;;;;3.53;0.70;;;7.60;1.00;;;;;;2603733;54;20855;31
2023/01/17 11:56:43;;;;;;;3.33;1.10;;;7.60;1.00;;;;;;2614244;31;21201;31
2023/01/17 11:59:38;;;;;;;2.30;1.00;;;7.50;1.00;;;;;;2603660;54;20124;31
2023/01/17 12:02:39;;;;;;;3.45;1.00;;;7.40;1.00;;;;;;2603495;54;20048;31
2023/01/17 12:05:52;;;;;;;1.73;0.83;;;7.40;1.00;;;;;;2603226;54;20094;31
2023/01/17 12:08:33;;;;;;;3.40;1.02;;;7.40;1.00;;;;;;2603173;54;20944;31
2023/01/17 12:11:12;;;;;;;4.55;1.05;;;7.30;1.00;;;;;;2603324;54;20929;31
2023/01/17 12:14:00;;;;;;;1.40;0.82;;;7.30;1.00;;;;;;2603329;54;20916;31
2023/01/17 12:16:46;;;;;;;1.65;0.88;;;7.20;1.00;;;;;;2603402;54;20908;31
2023/01/17 12:19:31;;;;;;;2.45;1.15;;;7.10;99.90;;;;;;2603037;54;20026;31
2023/01/17 12:22:21;;;;;;;2.55;1.10;;;7.10;99.90;;;;;;2603494;54;20127;31
2023/01/17 12:25:14;;;;;;;3.30;0.70;;;7.10;99.90;;;;;;2701910;39;21508;31
2023/01/17 12:27:56;;;;;;;2.35;0.90;;;7.10;99.90;;;;;;2603333;54;20824;31
2023/01/17 12:30:45;;;;;;;2.38;0.80;;;7.10;99.90;;;;;;2603033;54;20806;31
2023/01/17 12:33:25;;;;;;;3.50;0.98;;;7.10;99.90;;;;;;2603209;54;20038;31
2023/01/17 12:36:02;;;;;;;4.25;1.10;;;7.10;99.90;;;;;;2621804;46;20109;31
2023/01/17 12:38:39;;;;;;;2.33;1.20;;;7.10;99.90;;;;;;2603267;54;20089;31
2023/01/17 12:41:18;;;;;;;3.22;1.23;;;7.10;99.90;;;;;;2603398;54;20792;31
2023/01/17 12:43:57;;;;;;;3.05;1.17;;;7.10;99.90;;;;;;2603459;54;20031;31
2023/01/17 12:46:37;;;;;;;1.65;1.05;;;7.10;99.90;;;;;;2603269;54;20081;31
2023/01/17 12:49:22;;;;;;;3.90;0.90;;;7.10;99.90;;;;;;2603258;54;20869;31
2023/01/17 12:52:02;;;;;;;2.35;0.80;;;7.20;99.90;;;;;;2603278;54;20907;31
2023/01/17 12:54:38;;;;;;;3.35;1.15;;;7.20;99.90;;;;;;2603484;54;20065;31
2023/01/17 12:57:15;;;;;;;2.53;0.80;;;7.20;99.90;;;;;;2603419;54;20840;31
2023/01/17 12:59:53;;;;;;;2.13;0.98;;;7.30;99.90;;;;;;2603179;54;20023;31
2023/01/17 13:02:37;;;;;;;3.25;1.20;;;7.20;1.00;;;;;;2603120;54;20120;31
2023/01/17 13:05:22;;;;;;;2.13;1.10;;;7.20;1.00;;;;;;2603204;54;20034;31
2023/01/17 13:08:04;;;;;;;2.07;0.90;;;7.20;1.00;;;;;;2603338;54;20026;31
2023/01/17 13:10:42;;;;;;;2.65;0.90;;;7.20;1.00;;;;;;2621683;46;19935;31
2023/01/17 13:13:21;;;;;;;1.63;0.80;;;7.20;1.00;;;;;;2603207;54;20841;31
2023/01/17 13:15:57;;;;;;;2.15;1.10;;;7.30;1.00;;;;;;2603074;54;20089;31
2023/01/17 13:18:36;;;;;;;2.88;1.08;;;7.30;1.00;;;;;;2603239;54;20939;31
2023/01/17 13:21:18;;;;;;;;;;;7.40;1.00;;;;;;2603572;54;20030;31
2023/01/17 13:24:09;;;;;;;2.00;0.70;;;7.30;1.00;;;;;;2621443;46;19942;31
2023/01/17 13:29:21;;;;;;;1.10;0.65;;;7.30;1.00;;;;;;2603352;54;20042;31
2023/01/17 13:31:59;;;;;;;2.40;0.82;;;7.30;1.00;;;;;;2603317;54;20049;31
2023/01/17 13:34:57;;;;;;;2.00;0.80;;;7.30;1.00;;;;;;2603429;54;20852;31
2023/01/17 13:37:57;;;;;;;1.55;0.75;;;7.30;1.00;;;;;;2603185;54;20899;31
2023/01/17 13:40:37;;;;;;;2.67;0.85;;;7.30;1.00;;;;;;2603185;54;20030;31
2023/01/17 13:43:16;;;;;;;7.40;0.98;;;7.30;1.00;;;;;;2603246;54;20030;31
2023/01/17 13:45:55;;;;;;;3.63;0.90;;;7.30;99.90;;;;;;2603079;54;20172;31
2023/01/17 13:48:36;;;;;;;2.53;1.10;;;7.30;99.90;;;;;;2602943;54;20022;31
2023/01/17 13:51:11;;;;;;;4.95;1.30;;;7.30;1.00;;;;;;2602909;54;20950;31
2023/01/17 13:53:55;;;;;;;3.80;1.10;;;7.20;99.90;;;;;;2602936;54;20976;31
2023/01/17 13:56:40;;;;;;;1.98;0.88;;;7.20;1.00;;;;;;2603281;54;20093;31
2023/01/17 13:59:35;;;;;;;2.00;0.70;;;7.20;1.00;;;;;;2621579;46;20030;31
2023/01/17 14:02:08;;;;;;;2.22;1.23;;;7.10;1.00;;;;;;2603417;54;20022;31
2023/01/17 14:05:09;;;;;;;10.50;1.20;;;7.00;1.00;;;;;;2602874;54;20050;31
2023/01/17 14:07:46;;;;;;;2.63;0.80;;;7.00;1.00;;;;;;2621344;46;20072;31
2023/01/17 14:10:31;;;;;;;2.35;0.85;;;7.00;1.00;;;;;;2603026;54;20117;31
2023/01/17 14:13:08;;;;;;;2.80;0.98;;;6.90;1.00;;;;;;2603108;54;20873;31
2023/01/17 14:15:52;;;;;;;2.00;0.75;;;6.90;1.00;;;;;;2603017;54;20085;31
2023/01/17 14:18:35;;;;;;;5.68;1.45;;;6.80;1.00;;;;;;2603219;54;19934;31
2023/01/17 14:21:13;;;;;;;2.13;0.73;;;6.80;1.00;;;;;;2603090;54;20031;31
2023/01/17 14:23:55;;;;;;;3.27;1.20;;;6.80;99.90;;;;;;2603071;54;20029;31
2023/01/17 14:26:49;;;;;;;2.53;0.80;;;6.80;99.90;;;;;;2602166;54;20030;31
2023/01/17 14:29:51;;;;;;;3.10;1.00;;;6.70;99.90;;;;;;2621334;47;20902;31
2023/01/17 14:32:26;;;;;;;3.45;1.35;;;6.60;1.00;;;;;;2603095;54;20034;31
2023/01/17 14:35:03;;;;;;;4.00;1.13;;;6.60;99.90;;;;;;2603231;54;20859;31
2023/01/17 14:37:43;;;;;;;4.45;1.27;;;6.50;1.00;;;;;;2603026;54;19946;31
2023/01/17 14:40:25;;;;;;;5.90;1.70;;;6.40;99.90;;;;;;2602706;54;19934;31
2023/01/17 14:45:36;;;;;;;5.30;1.80;;;6.30;99.90;;;;;;2603705;54;20027;31
2023/01/17 14:48:18;;;;;;;2.67;1.30;;;6.30;99.90;;;;;;2603556;54;20385;31
2023/01/17 14:50:56;;;;;;;3.80;1.15;;;6.20;99.90;;;;;;2603943;54;20049;31
2023/01/17 14:53:31;;;;;;;3.50;1.70;;;6.20;99.90;;;;;;2603941;54;20856;31
2023/01/17 14:56:14;;;;;;;2.08;1.17;;;6.10;99.90;;;;;;2603677;54;21019;31
2023/01/17 14:58:50;;;;;;;2.25;1.25;;;6.10;99.90;;;;;;2603766;54;20034;31
2023/01/17 15:01:32;;;;;;;3.05;1.40;;;6.10;1.00;;;;;;2603675;54;20053;31
2023/01/17 15:04:08;;;;;;;3.30;1.20;;;6.00;1.00;;;;;;2603557;54;20912;31
2023/01/17 15:06:44;;;;;;;2.55;1.10;;;5.90;1.00;;;;;;2603892;54;20960;31
2023/01/17 15:09:24;;;;;;;4.10;1.20;;;5.80;1.00;;;;;;2603477;54;20056;31
2023/01/17 15:12:01;;;;;;;3.42;1.40;;;5.80;1.00;;;;;;2603605;54;20920;31
2023/01/17 15:14:39;;;;;;;3.40;1.10;;;5.70;1.00;;;;;;2603836;54;20805;31
2023/01/17 15:17:20;;;;;;;2.30;1.02;;;5.70;1.00;;;;;;2603846;54;20044;31
2023/01/17 15:19:55;;;;;;;3.30;1.53;;;5.60;1.00;;;;;;2603556;54;20030;31
2023/01/17 15:22:33;;;;;;;4.30;1.30;;;5.50;26.00;;;;;;2603647;54;20245;31
2023/01/17 15:25:11;;;;;;;3.55;1.60;;;5.50;15.60;;;;;;2622074;46;20033;31
2023/01/17 15:27:51;;;;;;;4.18;1.55;;;5.50;24.70;;;;;;2603657;54;24148;31
2023/01/17 15:30:28;;;;;;;3.20;1.33;;;5.40;43.20;;;;;;2621730;46;20927;31
2023/01/17 15:33:06;;;;;;;3.40;1.30;;;5.30;4.00;;;;;;2701403;39;21225;31
2023/01/17 15:35:41;;;;;;;3.72;1.58;;;5.30;20.20;;;;;;2621852;46;20890;31
2023/01/17 15:38:17;;;;;;;6.05;1.88;;;5.20;25.80;;;;;;2603732;54;20034;31
2023/01/17 15:40:54;;;;;;;3.30;1.42;;;5.10;1.00;;;;;;2603406;54;20026;31